createdAt,value
2017-12-16T00:00:04.361Z,0
2017-12-16T00:05:02.934Z,0
2017-12-16T00:10:02.766Z,0
2017-12-16T00:15:03.350Z,0
2017-12-16T00:20:02.997Z,0
2017-12-16T00:25:03.433Z,0
2017-12-16T00:30:02.982Z,0
2017-12-16T00:35:03.413Z,0
2017-12-16T00:40:03.012Z,0
2017-12-16T00:45:03.456Z,0
2017-12-16T00:50:03.178Z,0
2017-12-16T00:55:02.764Z,0
2017-12-16T01:00:03.406Z,0
2017-12-16T01:05:02.965Z,0
2017-12-16T01:10:02.563Z,0
2017-12-16T01:15:03.244Z,0
2017-12-16T01:20:02.858Z,0
2017-12-16T01:25:03.264Z,0
2017-12-16T01:30:02.753Z,0
2017-12-16T01:35:03.267Z,0
2017-12-16T01:40:02.928Z,0
2017-12-16T01:45:03.432Z,0
2017-12-16T01:50:02.937Z,0
2017-12-16T01:55:02.540Z,0
2017-12-16T02:00:02.937Z,0
2017-12-16T02:05:03.053Z,0
2017-12-16T02:10:02.807Z,0
2017-12-16T02:15:03.387Z,0
2017-12-16T02:20:03.002Z,0
2017-12-16T02:25:02.531Z,0
2017-12-16T02:30:03.096Z,0
2017-12-16T02:35:02.760Z,0
2017-12-16T02:40:03.448Z,0
2017-12-16T02:45:03.115Z,0
2017-12-16T02:50:02.749Z,0
2017-12-16T02:55:03.226Z,0
2017-12-16T03:00:02.823Z,0
2017-12-16T03:05:03.268Z,0
2017-12-16T03:10:02.975Z,0
2017-12-16T03:15:02.467Z,0
2017-12-16T03:20:02.967Z,0
2017-12-16T03:25:02.604Z,0
2017-12-16T03:30:03.355Z,0
2017-12-16T03:35:03.131Z,0
2017-12-16T03:40:02.719Z,0
2017-12-16T03:45:03.216Z,0
2017-12-16T03:50:02.722Z,0
2017-12-16T03:55:03.245Z,0
2017-12-16T04:00:02.699Z,0
2017-12-16T04:05:03.326Z,0
2017-12-16T04:10:02.742Z,0
2017-12-16T04:15:03.277Z,0
2017-12-16T04:20:03.010Z,0
2017-12-16T04:25:02.494Z,0
2017-12-16T04:30:03.005Z,0
2017-12-16T04:35:02.651Z,0
2017-12-16T04:40:03.143Z,0
2017-12-16T04:45:02.760Z,0
2017-12-16T04:50:03.311Z,0
2017-12-16T04:55:02.976Z,0
2017-12-16T05:00:02.524Z,0
2017-12-16T05:05:03.134Z,0
2017-12-16T05:10:02.831Z,0
2017-12-16T05:15:02.466Z,0
2017-12-16T05:20:03.030Z,0
2017-12-16T05:25:02.713Z,0
2017-12-16T05:30:03.363Z,0
2017-12-16T05:35:02.938Z,0
2017-12-16T05:40:03.435Z,0
2017-12-16T05:45:02.977Z,0
2017-12-16T05:50:02.586Z,0
2017-12-16T05:55:03.092Z,0
2017-12-16T06:00:02.698Z,0
2017-12-16T06:05:03.195Z,0
2017-12-16T06:10:02.945Z,0
2017-12-16T06:15:02.631Z,0
2017-12-16T06:20:03.252Z,0
2017-12-16T06:25:02.757Z,0
2017-12-16T06:30:03.307Z,0
2017-12-16T06:35:02.973Z,0
2017-12-16T06:40:03.448Z,0
2017-12-16T06:45:02.854Z,0
2017-12-16T06:50:03.405Z,0
2017-12-16T06:55:03.020Z,1
2017-12-16T07:00:02.592Z,3
2017-12-16T07:05:03.141Z,7
2017-12-16T07:10:02.662Z,16
2017-12-16T07:15:03.391Z,24
2017-12-16T07:20:02.905Z,36
2017-12-16T07:25:03.322Z,53
2017-12-16T07:30:03.129Z,65
2017-12-16T07:35:02.798Z,96
2017-12-16T07:40:03.299Z,280
2017-12-16T07:45:02.812Z,294
2017-12-16T07:50:03.477Z,355
2017-12-16T07:55:03.011Z,396
2017-12-16T08:00:03.403Z,462
2017-12-16T08:05:03.152Z,578
2017-12-16T08:10:02.631Z,687
2017-12-16T08:15:03.081Z,664
2017-12-16T08:20:02.527Z,740
2017-12-16T08:25:03.039Z,815
2017-12-16T08:30:02.586Z,949
2017-12-16T08:35:03.109Z,1000
2017-12-16T08:40:02.628Z,1000
2017-12-16T08:45:03.114Z,1000
2017-12-16T08:50:02.767Z,1000
2017-12-16T08:55:03.202Z,1000
2017-12-16T09:00:02.609Z,1000
2017-12-16T09:05:03.317Z,9000
2017-12-16T09:10:02.928Z,15000
2017-12-16T09:15:03.425Z,14000
2017-12-16T09:20:03.112Z,17000
2017-12-16T09:25:02.502Z,18000
2017-12-16T09:30:03.014Z,20000
2017-12-16T09:35:02.535Z,21000
2017-12-16T09:40:03.068Z,19000
2017-12-16T09:45:02.772Z,21000
2017-12-16T09:50:03.327Z,21000
2017-12-16T09:55:02.799Z,22000
2017-12-16T10:00:03.373Z,22000
2017-12-16T10:05:03.031Z,23000
2017-12-16T10:10:02.563Z,23000
2017-12-16T10:15:03.125Z,23000
2017-12-16T10:20:02.824Z,23000
2017-12-16T10:25:02.569Z,23000
2017-12-16T10:30:03.151Z,23000
2017-12-16T10:35:02.449Z,20000
2017-12-16T10:40:02.914Z,21000
2017-12-16T10:45:02.508Z,18000
2017-12-16T10:50:03.182Z,13000
2017-12-16T10:55:02.805Z,20000
2017-12-16T11:00:03.344Z,18000
2017-12-16T11:05:02.873Z,21000
2017-12-16T11:10:03.397Z,17000
2017-12-16T11:15:02.927Z,19000
2017-12-16T11:20:02.592Z,22000
2017-12-16T11:25:03.191Z,20000
2017-12-16T11:30:02.627Z,18000
2017-12-16T11:35:03.332Z,12000
2017-12-16T11:40:02.934Z,13000
2017-12-16T11:45:03.376Z,9000
2017-12-16T11:50:03.030Z,8000
2017-12-16T11:55:02.678Z,4000
2017-12-16T12:00:03.107Z,4000
2017-12-16T12:05:02.665Z,3000
2017-12-16T12:10:03.345Z,3000
2017-12-16T12:15:02.859Z,3000
2017-12-16T12:20:02.646Z,3000
2017-12-16T12:25:03.222Z,3000
2017-12-16T12:30:02.677Z,3000
2017-12-16T12:35:03.221Z,3000
2017-12-16T12:40:02.894Z,3000
2017-12-16T12:45:02.487Z,3000
2017-12-16T12:50:03.223Z,5000
2017-12-16T12:55:02.862Z,3000
2017-12-16T13:00:03.319Z,2000
2017-12-16T13:10:03.356Z,3000
2017-12-16T13:15:02.775Z,5000
2017-12-16T13:20:03.339Z,3000
2017-12-16T13:25:02.794Z,3000
2017-12-16T13:30:03.446Z,3000
2017-12-16T13:35:03.107Z,1000
2017-12-16T13:40:02.723Z,3000
2017-12-16T13:45:03.246Z,4000
2017-12-16T13:50:02.908Z,3000
2017-12-16T13:55:03.414Z,3000
2017-12-16T14:00:02.903Z,2000
2017-12-16T14:05:02.450Z,1000
2017-12-16T14:10:03.202Z,2000
2017-12-16T14:15:02.640Z,1000
2017-12-16T14:20:03.189Z,1000
2017-12-16T14:25:02.763Z,906
2017-12-16T14:30:03.405Z,823
2017-12-16T14:35:03.112Z,665
2017-12-16T14:40:02.850Z,583
2017-12-16T14:45:02.539Z,575
2017-12-16T14:50:02.985Z,581
2017-12-16T14:55:03.437Z,698
2017-12-16T15:00:02.930Z,680
2017-12-16T15:05:02.466Z,599
2017-12-16T15:10:03.088Z,471
2017-12-16T15:15:02.777Z,350
2017-12-16T15:20:03.450Z,218
2017-12-16T15:25:02.989Z,72
2017-12-16T15:30:02.569Z,62
2017-12-16T15:35:03.166Z,39
2017-12-16T15:40:02.904Z,30
2017-12-16T15:45:02.706Z,23
2017-12-16T15:50:03.253Z,13
2017-12-16T15:55:02.677Z,6
2017-12-16T16:00:03.280Z,4
2017-12-16T16:05:02.934Z,2
2017-12-16T16:10:02.844Z,1
2017-12-16T16:15:03.447Z,1
2017-12-16T16:20:03.116Z,0
2017-12-16T16:25:02.781Z,0
2017-12-16T16:30:02.457Z,0
2017-12-16T16:35:03.054Z,0
2017-12-16T16:40:02.630Z,0
2017-12-16T16:45:03.140Z,0
2017-12-16T16:50:02.633Z,0
2017-12-16T16:55:03.114Z,0
2017-12-16T17:00:02.527Z,0
2017-12-16T17:05:03.279Z,0
2017-12-16T17:10:02.977Z,0
2017-12-16T17:15:02.721Z,0
2017-12-16T17:20:03.415Z,0
2017-12-16T17:25:03.074Z,0
2017-12-16T17:30:02.668Z,0
2017-12-16T17:35:03.306Z,0
2017-12-16T17:40:02.988Z,0
2017-12-16T17:45:03.379Z,0
2017-12-16T17:50:02.871Z,0
2017-12-16T17:55:03.329Z,0
2017-12-16T18:00:02.961Z,0
2017-12-16T18:05:02.530Z,0
2017-12-16T18:10:03.120Z,0
2017-12-16T18:15:02.778Z,0
2017-12-16T18:20:03.293Z,0
2017-12-16T18:25:02.731Z,0
2017-12-16T18:30:03.258Z,0
2017-12-16T18:35:02.698Z,0
2017-12-16T18:40:03.199Z,0
2017-12-16T18:45:02.624Z,0
2017-12-16T18:50:03.355Z,0
2017-12-16T18:55:02.929Z,0
2017-12-16T19:00:03.412Z,0
2017-12-16T19:05:02.951Z,0
2017-12-16T19:10:03.444Z,0
2017-12-16T19:15:03.113Z,0
2017-12-16T19:20:02.732Z,0
2017-12-16T19:25:02.509Z,0
2017-12-16T19:30:03.133Z,0
2017-12-16T19:35:02.677Z,0
2017-12-16T19:40:03.182Z,0
2017-12-16T19:45:02.695Z,0
2017-12-16T19:50:03.265Z,0
2017-12-16T19:55:02.783Z,0
2017-12-16T20:00:03.283Z,0
2017-12-16T20:05:02.679Z,0
2017-12-16T20:10:03.406Z,0
2017-12-16T20:15:03.055Z,0
2017-12-16T20:20:02.826Z,0
2017-12-16T20:25:03.238Z,0
2017-12-16T20:30:02.713Z,0
2017-12-16T20:35:03.270Z,0
2017-12-16T20:40:02.886Z,0
2017-12-16T20:45:02.505Z,0
2017-12-16T20:50:03.280Z,0
2017-12-16T20:55:02.902Z,0
2017-12-16T21:00:02.547Z,0
2017-12-16T21:05:03.035Z,0
2017-12-16T21:10:02.820Z,0
2017-12-16T21:15:03.390Z,0
2017-12-16T21:20:03.010Z,0
2017-12-16T21:25:02.735Z,0
2017-12-16T21:30:03.180Z,0
2017-12-16T21:35:02.762Z,0
2017-12-16T21:40:03.413Z,0
2017-12-16T21:45:02.936Z,0
2017-12-16T21:50:02.532Z,0
2017-12-16T21:55:02.989Z,0
2017-12-16T22:00:03.692Z,0
2017-12-16T22:05:03.241Z,0
2017-12-16T22:10:02.782Z,0
2017-12-16T22:15:03.362Z,0
2017-12-16T22:20:03.020Z,0
2017-12-16T22:25:03.465Z,0
2017-12-16T22:30:03.299Z,0
2017-12-16T22:35:03.035Z,0
2017-12-16T22:40:02.527Z,0
2017-12-16T22:45:03.091Z,0
2017-12-16T22:50:02.556Z,0
2017-12-16T22:55:03.024Z,0
2017-12-16T23:00:02.613Z,0
2017-12-16T23:05:03.093Z,0
2017-12-16T23:10:02.866Z,0
2017-12-16T23:15:03.295Z,0
2017-12-16T23:20:02.967Z,0
2017-12-16T23:25:03.402Z,0
2017-12-16T23:30:03.235Z,0
2017-12-16T23:35:02.930Z,0
2017-12-16T23:40:02.562Z,0
2017-12-16T23:45:03.034Z,0
2017-12-16T23:50:02.728Z,0
2017-12-16T23:55:03.227Z,0
